sensor_id;sensor_type;location;lat;lon;timestamp;pressure;altitude;pressure_sealevel;temperature;humidity
18784;BME280;9520;50.954;6.968;2023-01-13T00:00:11;100031.34;;;18.24;49.11
18784;BME280;9520;50.954;6.968;2023-01-13T00:00:35;100027.81;;;18.24;48.91
18784;BME280;9520;50.954;6.968;2023-01-13T00:00:57;100026.41;;;18.32;48.51
18784;BME280;9520;50.954;6.968;2023-01-13T00:01:20;100033.75;;;18.29;48.43
18784;BME280;9520;50.954;6.968;2023-01-13T00:01:42;100019.97;;;18.21;48.45
18784;BME280;9520;50.954;6.968;2023-01-13T00:02:04;100039.09;;;18.29;48.47
18784;BME280;9520;50.954;6.968;2023-01-13T00:02:26;100026.16;;;18.21;48.71
18784;BME280;9520;50.954;6.968;2023-01-13T00:02:48;100032.53;;;18.19;48.65
18784;BME280;9520;50.954;6.968;2023-01-13T00:03:10;100037.81;;;18.20;48.77
18784;BME280;9520;50.954;6.968;2023-01-13T00:03:32;100033.06;;;18.25;48.69
18784;BME280;9520;50.954;6.968;2023-01-13T00:03:54;100037.16;;;18.31;48.42
18784;BME280;9520;50.954;6.968;2023-01-13T00:04:17;100030.63;;;18.36;48.19
18784;BME280;9520;50.954;6.968;2023-01-13T00:04:38;100033.88;;;18.41;48.05
18784;BME280;9520;50.954;6.968;2023-01-13T00:05:00;100036.28;;;18.46;48.08
18784;BME280;9520;50.954;6.968;2023-01-13T00:05:23;100037.75;;;18.51;47.99
18784;BME280;9520;50.954;6.968;2023-01-13T00:05:46;100025.53;;;18.47;48.23
18784;BME280;9520;50.954;6.968;2023-01-13T00:06:11;100025.25;;;18.52;48.31
18784;BME280;9520;50.954;6.968;2023-01-13T00:06:33;100035.78;;;18.55;48.14
18784;BME280;9520;50.954;6.968;2023-01-13T00:06:57;100026.22;;;18.51;48.05
18784;BME280;9520;50.954;6.968;2023-01-13T00:07:19;100035.38;;;18.31;48.10
18784;BME280;9520;50.954;6.968;2023-01-13T00:07:40;100023.84;;;17.99;48.46
18784;BME280;9520;50.954;6.968;2023-01-13T00:08:04;100034.88;;;17.93;48.85
18784;BME280;9520;50.954;6.968;2023-01-13T00:08:26;100025.66;;;17.83;49.22
18784;BME280;9520;50.954;6.968;2023-01-13T00:08:49;100026.88;;;17.93;49.02
18784;BME280;9520;50.954;6.968;2023-01-13T00:09:11;100030.06;;;18.00;49.02
18784;BME280;9520;50.954;6.968;2023-01-13T00:09:32;100024.28;;;18.07;48.74
18784;BME280;9520;50.954;6.968;2023-01-13T00:09:54;100023.75;;;18.17;48.57
18784;BME280;9520;50.954;6.968;2023-01-13T00:10:17;100022.38;;;18.25;48.55
18784;BME280;9520;50.954;6.968;2023-01-13T00:10:38;100028.22;;;18.16;48.66
18784;BME280;9520;50.954;6.968;2023-01-13T00:11:00;100029.63;;;18.07;48.83
18784;BME280;9520;50.954;6.968;2023-01-13T00:11:22;100030.47;;;18.08;48.81
18784;BME280;9520;50.954;6.968;2023-01-13T00:11:46;100033.00;;;17.95;48.95
18784;BME280;9520;50.954;6.968;2023-01-13T00:12:08;100028.16;;;18.02;48.73
18784;BME280;9520;50.954;6.968;2023-01-13T00:12:30;100026.41;;;18.01;48.96
18784;BME280;9520;50.954;6.968;2023-01-13T00:12:51;100022.56;;;18.06;48.96
18784;BME280;9520;50.954;6.968;2023-01-13T00:13:14;100022.88;;;18.16;48.64
18784;BME280;9520;50.954;6.968;2023-01-13T00:13:36;100021.69;;;18.22;48.64
18784;BME280;9520;50.954;6.968;2023-01-13T00:13:59;100030.28;;;18.27;48.59
18784;BME280;9520;50.954;6.968;2023-01-13T00:14:20;100028.56;;;18.26;48.41
18784;BME280;9520;50.954;6.968;2023-01-13T00:14:42;100028.41;;;18.29;48.55
18784;BME280;9520;50.954;6.968;2023-01-13T00:15:06;100036.69;;;18.24;48.53
18784;BME280;9520;50.954;6.968;2023-01-13T00:15:28;100031.34;;;18.24;48.65
18784;BME280;9520;50.954;6.968;2023-01-13T00:15:54;100030.56;;;18.22;48.72
18784;BME280;9520;50.954;6.968;2023-01-13T00:16:17;100033.00;;;17.95;49.46
18784;BME280;9520;50.954;6.968;2023-01-13T00:16:40;100028.59;;;17.94;49.90
18784;BME280;9520;50.954;6.968;2023-01-13T00:17:02;100030.41;;;17.94;50.12
18784;BME280;9520;50.954;6.968;2023-01-13T00:17:24;100014.31;;;17.95;50.22
18784;BME280;9520;50.954;6.968;2023-01-13T00:17:45;100024.81;;;17.98;49.98
18784;BME280;9520;50.954;6.968;2023-01-13T00:18:09;100022.06;;;18.00;50.12
18784;BME280;9520;50.954;6.968;2023-01-13T00:18:31;100020.66;;;18.08;49.93
18784;BME280;9520;50.954;6.968;2023-01-13T00:18:53;100018.78;;;18.10;50.20
18784;BME280;9520;50.954;6.968;2023-01-13T00:19:15;100026.34;;;18.18;49.96
18784;BME280;9520;50.954;6.968;2023-01-13T00:19:38;100018.84;;;18.25;50.03
18784;BME280;9520;50.954;6.968;2023-01-13T00:19:59;100019.72;;;18.25;49.97
18784;BME280;9520;50.954;6.968;2023-01-13T00:20:21;100017.53;;;18.32;49.96
18784;BME280;9520;50.954;6.968;2023-01-13T00:20:43;100013.75;;;18.36;49.90
18784;BME280;9520;50.954;6.968;2023-01-13T00:21:08;100009.97;;;18.40;49.83
18784;BME280;9520;50.954;6.968;2023-01-13T00:21:31;100010.66;;;18.43;49.94
18784;BME280;9520;50.954;6.968;2023-01-13T00:21:53;100016.56;;;18.48;49.92
18784;BME280;9520;50.954;6.968;2023-01-13T00:22:16;100020.97;;;18.49;49.82
18784;BME280;9520;50.954;6.968;2023-01-13T00:22:39;100021.84;;;18.50;49.91
18784;BME280;9520;50.954;6.968;2023-01-13T00:23:01;100014.25;;;18.42;49.83
18784;BME280;9520;50.954;6.968;2023-01-13T00:23:26;100018.47;;;18.46;49.70
18784;BME280;9520;50.954;6.968;2023-01-13T00:23:49;100024.66;;;18.47;49.57
18784;BME280;9520;50.954;6.968;2023-01-13T00:24:11;100015.53;;;18.35;49.56
18784;BME280;9520;50.954;6.968;2023-01-13T00:24:33;100018.22;;;18.35;49.65
18784;BME280;9520;50.954;6.968;2023-01-13T00:24:55;100009.25;;;18.36;49.78
18784;BME280;9520;50.954;6.968;2023-01-13T00:25:18;100011.84;;;18.38;49.98
18784;BME280;9520;50.954;6.968;2023-01-13T00:25:41;100011.66;;;18.41;49.94
18784;BME280;9520;50.954;6.968;2023-01-13T00:26:06;99995.84;;;18.38;50.05
18784;BME280;9520;50.954;6.968;2023-01-13T00:26:28;100014.94;;;18.46;49.97
18784;BME280;9520;50.954;6.968;2023-01-13T00:26:51;100006.84;;;18.47;49.98
18784;BME280;9520;50.954;6.968;2023-01-13T00:27:13;100009.44;;;18.49;50.07
18784;BME280;9520;50.954;6.968;2023-01-13T00:27:37;100004.09;;;18.49;49.84
18784;BME280;9520;50.954;6.968;2023-01-13T00:27:58;100009.25;;;18.52;49.84
18784;BME280;9520;50.954;6.968;2023-01-13T00:28:21;100019.75;;;18.55;49.73
18784;BME280;9520;50.954;6.968;2023-01-13T00:28:43;100010.81;;;18.56;49.72
18784;BME280;9520;50.954;6.968;2023-01-13T00:29:06;100018.75;;;18.58;49.72
18784;BME280;9520;50.954;6.968;2023-01-13T00:29:28;100017.88;;;18.57;49.60
18784;BME280;9520;50.954;6.968;2023-01-13T00:29:50;100021.34;;;18.59;49.86
18784;BME280;9520;50.954;6.968;2023-01-13T00:30:12;100019.53;;;18.60;49.83
18784;BME280;9520;50.954;6.968;2023-01-13T00:30:35;100022.94;;;18.62;49.62
18784;BME280;9520;50.954;6.968;2023-01-13T00:31:03;100010.09;;;18.52;49.82
18784;BME280;9520;50.954;6.968;2023-01-13T00:31:26;100030.09;;;18.61;49.67
18784;BME280;9520;50.954;6.968;2023-01-13T00:31:48;100018.94;;;18.54;49.50
18784;BME280;9520;50.954;6.968;2023-01-13T00:32:10;100026.41;;;18.64;49.52
18784;BME280;9520;50.954;6.968;2023-01-13T00:32:33;100020.94;;;18.65;49.63
18784;BME280;9520;50.954;6.968;2023-01-13T00:32:55;100024.75;;;18.61;49.68
18784;BME280;9520;50.954;6.968;2023-01-13T00:33:16;100008.72;;;18.61;49.78
18784;BME280;9520;50.954;6.968;2023-01-13T00:33:38;99994.69;;;18.42;50.08
18784;BME280;9520;50.954;6.968;2023-01-13T00:34:01;100024.09;;;18.58;50.01
18784;BME280;9520;50.954;6.968;2023-01-13T00:34:23;100017.38;;;18.35;50.52
18784;BME280;9520;50.954;6.968;2023-01-13T00:34:45;100015.81;;;18.31;50.90
18784;BME280;9520;50.954;6.968;2023-01-13T00:35:07;100021.00;;;18.34;50.42
18784;BME280;9520;50.954;6.968;2023-01-13T00:35:30;100022.13;;;18.30;50.52
18784;BME280;9520;50.954;6.968;2023-01-13T00:35:55;100024.53;;;18.34;50.40
18784;BME280;9520;50.954;6.968;2023-01-13T00:36:19;100020.88;;;18.35;50.24
18784;BME280;9520;50.954;6.968;2023-01-13T00:36:41;100014.28;;;18.27;50.07
18784;BME280;9520;50.954;6.968;2023-01-13T00:37:03;100029.00;;;18.34;50.37
18784;BME280;9520;50.954;6.968;2023-01-13T00:37:26;100035.28;;;18.33;50.44
18784;BME280;9520;50.954;6.968;2023-01-13T00:37:48;100028.91;;;18.35;50.39
18784;BME280;9520;50.954;6.968;2023-01-13T00:38:10;100025.56;;;18.32;50.46
18784;BME280;9520;50.954;6.968;2023-01-13T00:38:34;100014.81;;;18.18;50.12
18784;BME280;9520;50.954;6.968;2023-01-13T00:38:55;100019.19;;;18.19;50.01
18784;BME280;9520;50.954;6.968;2023-01-13T00:39:17;100037.28;;;18.13;50.26
18784;BME280;9520;50.954;6.968;2023-01-13T00:39:39;100023.06;;;17.97;50.11
18784;BME280;9520;50.954;6.968;2023-01-13T00:40:00;100035.81;;;17.92;50.44
18784;BME280;9520;50.954;6.968;2023-01-13T00:40:23;100031.16;;;17.96;50.89
18784;BME280;9520;50.954;6.968;2023-01-13T00:40:54;100039.88;;;17.99;50.69
18784;BME280;9520;50.954;6.968;2023-01-13T00:41:17;100040.13;;;17.95;51.04
18784;BME280;9520;50.954;6.968;2023-01-13T00:41:39;100037.19;;;17.84;51.10
18784;BME280;9520;50.954;6.968;2023-01-13T00:42:16;100036.56;;;17.79;51.32
18784;BME280;9520;50.954;6.968;2023-01-13T00:42:56;100033.56;;;17.85;51.43
18784;BME280;9520;50.954;6.968;2023-01-13T00:43:36;100036.13;;;17.86;51.42
18784;BME280;9520;50.954;6.968;2023-01-13T00:43:58;100037.88;;;17.87;51.66
18784;BME280;9520;50.954;6.968;2023-01-13T00:44:21;100033.41;;;17.88;51.36
18784;BME280;9520;50.954;6.968;2023-01-13T00:44:43;100023.50;;;17.90;51.29
18784;BME280;9520;50.954;6.968;2023-01-13T00:45:05;99952.53;;;17.39;51.32
18784;BME280;9520;50.954;6.968;2023-01-13T00:45:27;100035.13;;;17.89;51.33
18784;BME280;9520;50.954;6.968;2023-01-13T00:45:50;100033.31;;;17.89;51.70
18784;BME280;9520;50.954;6.968;2023-01-13T00:46:14;100042.25;;;17.88;51.70
18784;BME280;9520;50.954;6.968;2023-01-13T00:46:36;100055.53;;;17.90;51.75
18784;BME280;9520;50.954;6.968;2023-01-13T00:46:57;100028.28;;;17.67;51.98
18784;BME280;9520;50.954;6.968;2023-01-13T00:47:19;100040.63;;;17.70;51.92
18784;BME280;9520;50.954;6.968;2023-01-13T00:47:43;100003.16;;;17.56;52.19
18784;BME280;9520;50.954;6.968;2023-01-13T00:48:05;99986.34;;;17.54;51.83
18784;BME280;9520;50.954;6.968;2023-01-13T00:48:27;100038.19;;;17.81;52.24
18784;BME280;9520;50.954;6.968;2023-01-13T00:48:50;100034.78;;;17.79;51.98
18784;BME280;9520;50.954;6.968;2023-01-13T00:49:12;99996.75;;;17.58;52.05
18784;BME280;9520;50.954;6.968;2023-01-13T00:49:34;100036.50;;;17.80;51.89
18784;BME280;9520;50.954;6.968;2023-01-13T00:49:56;100021.09;;;17.69;52.03
18784;BME280;9520;50.954;6.968;2023-01-13T00:50:18;100032.88;;;17.81;52.12
18784;BME280;9520;50.954;6.968;2023-01-13T00:50:39;100033.97;;;17.77;51.96
18784;BME280;9520;50.954;6.968;2023-01-13T00:51:04;99989.66;;;17.59;51.97
18784;BME280;9520;50.954;6.968;2023-01-13T00:51:26;99955.38;;;17.36;51.98
18784;BME280;9520;50.954;6.968;2023-01-13T00:51:48;99995.88;;;17.59;51.82
18784;BME280;9520;50.954;6.968;2023-01-13T00:52:10;99993.25;;;17.58;51.95
18784;BME280;9520;50.954;6.968;2023-01-13T00:52:34;100022.56;;;17.75;51.89
18784;BME280;9520;50.954;6.968;2023-01-13T00:52:58;100027.28;;;17.70;51.83
18784;BME280;9520;50.954;6.968;2023-01-13T00:53:21;100021.00;;;17.71;51.71
18784;BME280;9520;50.954;6.968;2023-01-13T00:53:45;100017.91;;;17.79;51.89
18784;BME280;9520;50.954;6.968;2023-01-13T00:54:08;100017.22;;;17.75;51.69
18784;BME280;9520;50.954;6.968;2023-01-13T00:54:30;100003.16;;;17.72;51.66
18784;BME280;9520;50.954;6.968;2023-01-13T00:54:52;100012.31;;;17.83;51.79
18784;BME280;9520;50.954;6.968;2023-01-13T00:55:14;100013.94;;;17.70;51.68
18784;BME280;9520;50.954;6.968;2023-01-13T00:55:36;99925.78;;;16.92;51.58
18784;BME280;9520;50.954;6.968;2023-01-13T00:55:59;99990.91;;;17.36;51.79
18784;BME280;9520;50.954;6.968;2023-01-13T00:56:23;99998.38;;;17.45;51.43
18784;BME280;9520;50.954;6.968;2023-01-13T00:57:00;100005.81;;;17.56;51.52
18784;BME280;9520;50.954;6.968;2023-01-13T00:57:24;100002.09;;;17.58;51.44
18784;BME280;9520;50.954;6.968;2023-01-13T00:57:45;99945.13;;;17.28;51.46
18784;BME280;9520;50.954;6.968;2023-01-13T00:58:07;99998.28;;;17.64;51.47
18784;BME280;9520;50.954;6.968;2023-01-13T00:58:31;100000.34;;;17.59;51.26
18784;BME280;9520;50.954;6.968;2023-01-13T00:58:54;100000.38;;;17.57;51.59
18784;BME280;9520;50.954;6.968;2023-01-13T00:59:17;100007.38;;;17.60;51.46
18784;BME280;9520;50.954;6.968;2023-01-13T00:59:39;100008.34;;;17.42;51.28
18784;BME280;9520;50.954;6.968;2023-01-13T01:00:01;100004.59;;;17.46;51.16
18784;BME280;9520;50.954;6.968;2023-01-13T01:00:24;100009.75;;;17.49;51.06
18784;BME280;9520;50.954;6.968;2023-01-13T01:00:46;99999.94;;;17.49;51.37
18784;BME280;9520;50.954;6.968;2023-01-13T01:01:09;100009.88;;;17.63;51.47
18784;BME280;9520;50.954;6.968;2023-01-13T01:01:31;100006.97;;;17.67;51.14
18784;BME280;9520;50.954;6.968;2023-01-13T01:01:55;99993.63;;;17.67;51.02
18784;BME280;9520;50.954;6.968;2023-01-13T01:02:17;100001.22;;;17.75;50.84
18784;BME280;9520;50.954;6.968;2023-01-13T01:02:39;100006.38;;;17.78;50.83
18784;BME280;9520;50.954;6.968;2023-01-13T01:03:01;100000.09;;;17.79;50.97
18784;BME280;9520;50.954;6.968;2023-01-13T01:03:24;99995.63;;;17.80;50.71
18784;BME280;9520;50.954;6.968;2023-01-13T01:03:46;99996.75;;;17.76;50.76
18784;BME280;9520;50.954;6.968;2023-01-13T01:04:08;99999.28;;;17.61;50.35
18784;BME280;9520;50.954;6.968;2023-01-13T01:04:30;99999.22;;;17.63;50.25
18784;BME280;9520;50.954;6.968;2023-01-13T01:04:52;99982.28;;;17.47;50.45
18784;BME280;9520;50.954;6.968;2023-01-13T01:05:14;100000.72;;;17.51;50.79
18784;BME280;9520;50.954;6.968;2023-01-13T01:05:36;99990.22;;;17.48;50.46
18784;BME280;9520;50.954;6.968;2023-01-13T01:06:03;99996.22;;;17.52;50.39
18784;BME280;9520;50.954;6.968;2023-01-13T01:06:26;99991.69;;;17.54;50.00
18784;BME280;9520;50.954;6.968;2023-01-13T01:06:49;99997.19;;;17.51;50.37
18784;BME280;9520;50.954;6.968;2023-01-13T01:07:11;99999.31;;;17.44;50.48
18784;BME280;9520;50.954;6.968;2023-01-13T01:07:35;100000.44;;;17.40;50.30
18784;BME280;9520;50.954;6.968;2023-01-13T01:07:57;100005.66;;;17.42;50.42
18784;BME280;9520;50.954;6.968;2023-01-13T01:08:19;99999.81;;;17.35;50.40
18784;BME280;9520;50.954;6.968;2023-01-13T01:08:41;99998.34;;;17.30;49.92
18784;BME280;9520;50.954;6.968;2023-01-13T01:09:05;99998.34;;;17.30;49.84
18784;BME280;9520;50.954;6.968;2023-01-13T01:09:26;100009.00;;;17.30;49.98
18784;BME280;9520;50.954;6.968;2023-01-13T01:09:53;100009.63;;;17.35;49.77
18784;BME280;9520;50.954;6.968;2023-01-13T01:10:16;100000.44;;;17.40;49.69
18784;BME280;9520;50.954;6.968;2023-01-13T01:10:37;100002.16;;;17.41;49.91
18784;BME280;9520;50.954;6.968;2023-01-13T01:11:00;99994.78;;;17.46;49.90
18784;BME280;9520;50.954;6.968;2023-01-13T01:11:23;100002.53;;;17.51;49.29
18784;BME280;9520;50.954;6.968;2023-01-13T01:11:46;100000.63;;;17.53;49.18
18784;BME280;9520;50.954;6.968;2023-01-13T01:12:08;99996.84;;;17.57;49.22
18784;BME280;9520;50.954;6.968;2023-01-13T01:12:30;100000.81;;;17.50;49.36
18784;BME280;9520;50.954;6.968;2023-01-13T01:12:52;99911.88;;;17.02;49.56
18784;BME280;9520;50.954;6.968;2023-01-13T01:13:14;99929.09;;;17.12;49.24
18784;BME280;9520;50.954;6.968;2023-01-13T01:13:38;99975.00;;;17.50;48.50
18784;BME280;9520;50.954;6.968;2023-01-13T01:14:01;99991.38;;;17.60;48.60
18784;BME280;9520;50.954;6.968;2023-01-13T01:14:24;99995.28;;;17.53;48.37
18784;BME280;9520;50.954;6.968;2023-01-13T01:14:47;99997.03;;;17.54;48.04
18784;BME280;9520;50.954;6.968;2023-01-13T01:15:10;99978.56;;;17.34;47.60
18784;BME280;9520;50.954;6.968;2023-01-13T01:15:32;99966.69;;;17.23;47.56
18784;BME280;9520;50.954;6.968;2023-01-13T01:15:53;100006.47;;;17.44;47.71
18784;BME280;9520;50.954;6.968;2023-01-13T01:16:17;99991.25;;;17.46;47.48
18784;BME280;9520;50.954;6.968;2023-01-13T01:16:40;100000.00;;;17.48;47.38
18784;BME280;9520;50.954;6.968;2023-01-13T01:17:02;100000.34;;;17.42;47.28
18784;BME280;9520;50.954;6.968;2023-01-13T01:17:25;99987.88;;;17.42;47.13
18784;BME280;9520;50.954;6.968;2023-01-13T01:17:48;100004.34;;;17.50;46.75
18784;BME280;9520;50.954;6.968;2023-01-13T01:18:09;100005.09;;;17.52;47.13
18784;BME280;9520;50.954;6.968;2023-01-13T01:18:32;99945.22;;;17.26;46.61
18784;BME280;9520;50.954;6.968;2023-01-13T01:18:55;99995.63;;;17.47;47.11
18784;BME280;9520;50.954;6.968;2023-01-13T01:19:17;100009.91;;;17.46;47.04
18784;BME280;9520;50.954;6.968;2023-01-13T01:19:39;99965.56;;;17.27;46.87
18784;BME280;9520;50.954;6.968;2023-01-13T01:20:02;100002.53;;;17.51;47.05
18784;BME280;9520;50.954;6.968;2023-01-13T01:20:25;99999.16;;;17.47;48.21
18784;BME280;9520;50.954;6.968;2023-01-13T01:20:47;99918.16;;;17.01;47.85
18784;BME280;9520;50.954;6.968;2023-01-13T01:21:09;99987.19;;;17.39;47.80
18784;BME280;9520;50.954;6.968;2023-01-13T01:21:32;100011.16;;;17.56;47.62
18784;BME280;9520;50.954;6.968;2023-01-13T01:21:55;100000.81;;;17.50;47.28
18784;BME280;9520;50.954;6.968;2023-01-13T01:22:17;99968.16;;;17.29;47.86
18784;BME280;9520;50.954;6.968;2023-01-13T01:22:40;99966.06;;;17.18;46.89
18784;BME280;9520;50.954;6.968;2023-01-13T01:23:02;100012.59;;;17.46;46.58
18784;BME280;9520;50.954;6.968;2023-01-13T01:23:26;100004.84;;;17.41;46.91
18784;BME280;9520;50.954;6.968;2023-01-13T01:23:52;100013.66;;;17.42;46.11
18784;BME280;9520;50.954;6.968;2023-01-13T01:24:15;100016.19;;;17.45;46.39
18784;BME280;9520;50.954;6.968;2023-01-13T01:24:41;100005.78;;;17.40;46.46
18784;BME280;9520;50.954;6.968;2023-01-13T01:25:06;100025.75;;;17.49;46.34
18784;BME280;9520;50.954;6.968;2023-01-13T01:25:31;100009.66;;;17.50;46.08
18784;BME280;9520;50.954;6.968;2023-01-13T01:25:59;100010.59;;;17.49;45.98
18784;BME280;9520;50.954;6.968;2023-01-13T01:26:23;100019.16;;;17.56;45.48
18784;BME280;9520;50.954;6.968;2023-01-13T01:26:53;100015.56;;;17.40;46.20
18784;BME280;9520;50.954;6.968;2023-01-13T01:27:16;100009.81;;;17.32;46.06
18784;BME280;9520;50.954;6.968;2023-01-13T01:27:41;100013.84;;;17.39;46.10
18784;BME280;9520;50.954;6.968;2023-01-13T01:28:08;100024.34;;;17.42;45.62
18784;BME280;9520;50.954;6.968;2023-01-13T01:28:33;100026.06;;;17.43;45.50
18784;BME280;9520;50.954;6.968;2023-01-13T01:28:57;100013.34;;;17.48;45.59
18784;BME280;9520;50.954;6.968;2023-01-13T01:29:20;100024.19;;;17.45;45.51
18784;BME280;9520;50.954;6.968;2023-01-13T01:30:08;100031.03;;;17.33;45.43
18784;BME280;9520;50.954;6.968;2023-01-13T01:30:31;100024.38;;;17.24;44.96
18784;BME280;9520;50.954;6.968;2023-01-13T01:30:53;100036.34;;;17.33;45.01
18784;BME280;9520;50.954;6.968;2023-01-13T01:31:17;100029.84;;;17.39;46.00
18784;BME280;9520;50.954;6.968;2023-01-13T01:31:40;100026.38;;;17.37;44.90
18784;BME280;9520;50.954;6.968;2023-01-13T01:32:01;100032.44;;;17.40;45.48
18784;BME280;9520;50.954;6.968;2023-01-13T01:32:24;100017.31;;;17.41;45.29
18784;BME280;9520;50.954;6.968;2023-01-13T01:32:46;100025.13;;;17.44;45.22
18784;BME280;9520;50.954;6.968;2023-01-13T01:33:08;100032.94;;;17.47;46.15
18784;BME280;9520;50.954;6.968;2023-01-13T01:33:29;100027.47;;;17.50;46.14
18784;BME280;9520;50.954;6.968;2023-01-13T01:33:52;100042.69;;;17.48;45.98
18784;BME280;9520;50.954;6.968;2023-01-13T01:34:15;100029.03;;;17.54;45.58
18784;BME280;9520;50.954;6.968;2023-01-13T01:34:36;100035.91;;;17.58;45.13
18784;BME280;9520;50.954;6.968;2023-01-13T01:34:59;100037.81;;;17.56;44.90
18784;BME280;9520;50.954;6.968;2023-01-13T01:35:22;100043.59;;;17.47;43.79
18784;BME280;9520;50.954;6.968;2023-01-13T01:35:44;100038.44;;;17.44;43.96
18784;BME280;9520;50.954;6.968;2023-01-13T01:36:06;100034.00;;;17.44;44.27
18784;BME280;9520;50.954;6.968;2023-01-13T01:36:28;100048.00;;;17.48;44.57
18784;BME280;9520;50.954;6.968;2023-01-13T01:36:51;100053.19;;;17.51;44.72
18784;BME280;9520;50.954;6.968;2023-01-13T01:37:13;100046.81;;;17.53;44.51
18784;BME280;9520;50.954;6.968;2023-01-13T01:37:34;100035.97;;;17.56;44.46
18784;BME280;9520;50.954;6.968;2023-01-13T01:37:58;100044.72;;;17.60;45.46
18784;BME280;9520;50.954;6.968;2023-01-13T01:38:21;100045.34;;;17.48;44.86
18784;BME280;9520;50.954;6.968;2023-01-13T01:38:44;100039.88;;;17.51;44.50
18784;BME280;9520;50.954;6.968;2023-01-13T01:39:06;100052.16;;;17.53;44.42
18784;BME280;9520;50.954;6.968;2023-01-13T01:39:27;100057.41;;;17.55;44.59
18784;BME280;9520;50.954;6.968;2023-01-13T01:39:51;100049.25;;;17.58;44.86
18784;BME280;9520;50.954;6.968;2023-01-13T01:40:13;100047.50;;;17.57;44.51
18784;BME280;9520;50.954;6.968;2023-01-13T01:40:35;100055.06;;;17.66;44.49
18784;BME280;9520;50.954;6.968;2023-01-13T01:40:56;100054.97;;;17.67;44.27
18784;BME280;9520;50.954;6.968;2023-01-13T01:41:21;100063.16;;;17.64;44.29
18784;BME280;9520;50.954;6.968;2023-01-13T01:41:44;100048.34;;;17.59;44.16
18784;BME280;9520;50.954;6.968;2023-01-13T01:42:25;100063.13;;;17.47;43.43
18784;BME280;9520;50.954;6.968;2023-01-13T01:43:13;100054.69;;;17.39;44.05
18784;BME280;9520;50.954;6.968;2023-01-13T01:43:55;100066.78;;;17.29;44.32
18784;BME280;9520;50.954;6.968;2023-01-13T01:44:51;100062.63;;;17.23;44.18
18784;BME280;9520;50.954;6.968;2023-01-13T01:45:17;100056.22;;;17.10;42.76
18784;BME280;9520;50.954;6.968;2023-01-13T01:45:40;100062.31;;;17.12;42.53
18784;BME280;9520;50.954;6.968;2023-01-13T01:46:03;100054.00;;;17.18;42.56
18784;BME280;9520;50.954;6.968;2023-01-13T01:46:27;100046.97;;;17.17;43.00
18784;BME280;9520;50.954;6.968;2023-01-13T01:46:49;100061.25;;;17.16;43.81
18784;BME280;9520;50.954;6.968;2023-01-13T01:47:16;100048.16;;;17.12;43.72
18784;BME280;9520;50.954;6.968;2023-01-13T01:47:38;100055.59;;;16.88;42.83
18784;BME280;9520;50.954;6.968;2023-01-13T01:48:05;100056.06;;;16.79;43.26
18784;BME280;9520;50.954;6.968;2023-01-13T01:48:30;100064.56;;;16.87;43.64
18784;BME280;9520;50.954;6.968;2023-01-13T01:48:58;100063.75;;;16.85;43.63
18784;BME280;9520;50.954;6.968;2023-01-13T01:49:23;100063.34;;;16.93;43.03
18784;BME280;9520;50.954;6.968;2023-01-13T01:49:46;100058.88;;;16.93;43.25
18784;BME280;9520;50.954;6.968;2023-01-13T01:50:09;100060.31;;;17.00;43.00
18784;BME280;9520;50.954;6.968;2023-01-13T01:50:32;100053.06;;;17.02;43.14
18784;BME280;9520;50.954;6.968;2023-01-13T01:50:55;100057.78;;;17.14;43.50
18784;BME280;9520;50.954;6.968;2023-01-13T01:51:17;100064.16;;;17.12;43.93
18784;BME280;9520;50.954;6.968;2023-01-13T01:51:43;100038.81;;;17.03;44.34
18784;BME280;9520;50.954;6.968;2023-01-13T01:52:12;100057.00;;;17.12;43.40
18784;BME280;9520;50.954;6.968;2023-01-13T01:52:38;100062.41;;;16.94;43.51
18784;BME280;9520;50.954;6.968;2023-01-13T01:53:05;100056.16;;;16.95;43.42
18784;BME280;9520;50.954;6.968;2023-01-13T01:53:30;100050.75;;;16.96;43.80
18784;BME280;9520;50.954;6.968;2023-01-13T01:53:55;100052.31;;;17.00;43.97
18784;BME280;9520;50.954;6.968;2023-01-13T01:54:21;100054.75;;;17.05;44.28
18784;BME280;9520;50.954;6.968;2023-01-13T01:54:47;100060.75;;;17.08;45.01
18784;BME280;9520;50.954;6.968;2023-01-13T01:55:15;100059.53;;;17.15;45.16
18784;BME280;9520;50.954;6.968;2023-01-13T01:55:39;100044.31;;;17.00;44.69
18784;BME280;9520;50.954;6.968;2023-01-13T01:56:02;100056.72;;;17.01;44.04
18784;BME280;9520;50.954;6.968;2023-01-13T01:56:24;100064.75;;;16.82;43.76
18784;BME280;9520;50.954;6.968;2023-01-13T01:56:46;100057.97;;;16.77;43.78
18784;BME280;9520;50.954;6.968;2023-01-13T01:57:13;100039.75;;;16.68;43.66
18784;BME280;9520;50.954;6.968;2023-01-13T01:57:39;100049.16;;;16.75;43.79
18784;BME280;9520;50.954;6.968;2023-01-13T01:58:05;100040.09;;;16.79;43.74
18784;BME280;9520;50.954;6.968;2023-01-13T01:58:31;100040.88;;;16.81;43.28
18784;BME280;9520;50.954;6.968;2023-01-13T01:58:56;100050.44;;;16.85;43.52
18784;BME280;9520;50.954;6.968;2023-01-13T01:59:18;100040.56;;;16.87;43.16
18784;BME280;9520;50.954;6.968;2023-01-13T01:59:41;100033.22;;;16.92;43.57
18784;BME280;9520;50.954;6.968;2023-01-13T02:00:05;100017.44;;;16.88;43.95
18784;BME280;9520;50.954;6.968;2023-01-13T02:00:34;100037.41;;;16.79;43.11
18784;BME280;9520;50.954;6.968;2023-01-13T02:00:56;100030.16;;;16.47;43.41
18784;BME280;9520;50.954;6.968;2023-01-13T02:01:19;99996.00;;;16.20;44.10
18784;BME280;9520;50.954;6.968;2023-01-13T02:01:43;100037.34;;;16.45;44.41
18784;BME280;9520;50.954;6.968;2023-01-13T02:02:10;100028.38;;;16.28;43.47
18784;BME280;9520;50.954;6.968;2023-01-13T02:02:33;99966.06;;;15.98;44.08
18784;BME280;9520;50.954;6.968;2023-01-13T02:02:56;100000.84;;;16.12;43.65
18784;BME280;9520;50.954;6.968;2023-01-13T02:03:19;99996.84;;;16.21;43.79
18784;BME280;9520;50.954;6.968;2023-01-13T02:03:46;100030.81;;;16.52;43.28
18784;BME280;9520;50.954;6.968;2023-01-13T02:04:15;100033.47;;;16.52;43.54
18784;BME280;9520;50.954;6.968;2023-01-13T02:04:41;100028.47;;;16.63;44.48
18784;BME280;9520;50.954;6.968;2023-01-13T02:05:11;99994.84;;;16.43;44.32
18784;BME280;9520;50.954;6.968;2023-01-13T02:05:33;99981.31;;;16.48;45.00